createdAt,value
2023-02-02T00:00:06.827Z,0.00
2023-02-02T00:01:06.796Z,0.00
2023-02-02T00:02:06.835Z,0.00
2023-02-02T00:03:06.858Z,0.00
2023-02-02T00:04:06.759Z,0.00
2023-02-02T00:05:06.655Z,0.00
2023-02-02T00:06:06.609Z,0.00
2023-02-02T00:07:06.617Z,0.00
2023-02-02T00:08:06.584Z,0.00
2023-02-02T00:09:06.505Z,0.00
2023-02-02T00:10:06.520Z,0.00
2023-02-02T00:11:06.461Z,0.00
2023-02-02T00:12:06.409Z,0.00
2023-02-02T00:13:06.372Z,0.00
2023-02-02T00:14:06.370Z,0.00
2023-02-02T00:15:06.267Z,0.00
2023-02-02T00:16:06.247Z,0.00
2023-02-02T00:17:06.201Z,0.00
2023-02-02T00:18:06.170Z,0.00
2023-02-02T00:19:06.131Z,0.00
2023-02-02T00:20:06.210Z,0.00
2023-02-02T00:21:06.072Z,0.00
2023-02-02T00:22:06.003Z,0.00
2023-02-02T00:23:05.971Z,0.00
2023-02-02T00:24:06.031Z,0.00
2023-02-02T00:25:05.896Z,0.00
2023-02-02T00:26:05.923Z,0.00
2023-02-02T00:27:05.850Z,0.00
2023-02-02T00:28:05.808Z,0.00
2023-02-02T00:29:05.748Z,0.00
2023-02-02T00:30:05.757Z,0.00
2023-02-02T00:31:05.686Z,0.00
2023-02-02T00:32:05.712Z,0.00
2023-02-02T00:33:05.707Z,0.00
2023-02-02T00:34:05.571Z,0.00
2023-02-02T00:35:05.563Z,0.00
2023-02-02T00:36:05.515Z,0.00
2023-02-02T00:37:05.462Z,0.00
2023-02-02T00:38:05.492Z,0.00
2023-02-02T00:39:05.395Z,0.00
2023-02-02T00:40:05.359Z,0.00
2023-02-02T00:41:05.358Z,0.00
2023-02-02T00:42:05.279Z,0.00
2023-02-02T00:43:05.252Z,0.00
2023-02-02T00:44:05.262Z,0.00
2023-02-02T00:45:05.187Z,0.00
2023-02-02T00:46:05.167Z,0.00
2023-02-02T00:47:05.155Z,0.00
2023-02-02T00:48:05.080Z,0.00
2023-02-02T00:49:05.017Z,0.00
2023-02-02T00:50:05.045Z,0.00
2023-02-02T00:51:05.002Z,0.00
2023-02-02T00:52:04.916Z,0.00
2023-02-02T00:53:04.873Z,0.00
2023-02-02T00:54:04.847Z,0.00
2023-02-02T00:55:04.799Z,0.00
2023-02-02T00:56:04.811Z,0.00
2023-02-02T00:57:04.736Z,0.00
2023-02-02T00:58:04.731Z,0.00
2023-02-02T00:59:04.665Z,0.00
2023-02-02T01:00:04.615Z,0.00
2023-02-02T01:01:04.685Z,0.00
2023-02-02T01:02:04.635Z,0.00
2023-02-02T01:03:04.604Z,0.00
2023-02-02T01:04:04.488Z,0.00
2023-02-02T01:05:04.435Z,0.00
2023-02-02T01:06:04.391Z,0.00
2023-02-02T01:07:05.129Z,0.00
2023-02-02T01:08:04.346Z,0.00
2023-02-02T01:09:04.285Z,0.00
2023-02-02T01:10:04.249Z,0.00
2023-02-02T01:11:04.209Z,0.00
2023-02-02T01:12:04.238Z,0.00
2023-02-02T01:13:04.147Z,0.00
2023-02-02T01:14:04.112Z,0.00
2023-02-02T01:15:04.128Z,0.00
2023-02-02T01:16:04.082Z,0.00
2023-02-02T01:17:04.024Z,0.00
2023-02-02T01:18:04.035Z,0.00
2023-02-02T01:19:03.948Z,0.00
2023-02-02T01:20:03.890Z,0.00
2023-02-02T01:21:03.857Z,0.00
2023-02-02T01:22:03.818Z,0.00
2023-02-02T01:23:03.838Z,0.00
2023-02-02T01:24:03.823Z,0.00
2023-02-02T01:25:03.701Z,0.00
2023-02-02T01:26:03.684Z,0.00
2023-02-02T01:27:03.655Z,0.00
2023-02-02T01:28:03.598Z,0.00
2023-02-02T01:29:03.603Z,0.00
2023-02-02T01:30:03.524Z,0.00
2023-02-02T01:31:03.514Z,0.00
2023-02-02T01:32:04.236Z,0.00
2023-02-02T01:33:03.419Z,0.00
2023-02-02T01:34:03.435Z,0.00
2023-02-02T01:35:03.402Z,0.00
2023-02-02T01:36:03.303Z,0.00
2023-02-02T01:37:03.264Z,0.00
2023-02-02T01:38:03.240Z,0.00
2023-02-02T01:39:03.192Z,0.00
2023-02-02T01:40:03.225Z,0.00
2023-02-02T01:41:03.189Z,0.00
2023-02-02T01:42:03.085Z,0.00
2023-02-02T01:43:03.048Z,0.00
2023-02-02T01:44:03.011Z,0.00
2023-02-02T01:45:03.040Z,0.00
2023-02-02T01:46:03.027Z,0.00
2023-02-02T01:47:02.893Z,0.00
2023-02-02T01:48:02.861Z,0.00
2023-02-02T01:49:02.867Z,0.00
2023-02-02T01:50:02.852Z,0.00
2023-02-02T01:51:02.755Z,0.00
2023-02-02T01:52:02.718Z,0.00
2023-02-02T01:53:02.681Z,0.00
2023-02-02T01:54:02.652Z,0.00
2023-02-02T01:55:03.181Z,0.00
2023-02-02T01:56:02.569Z,0.00
2023-02-02T01:57:02.545Z,0.00
2023-02-02T01:58:02.669Z,0.00
2023-02-02T01:59:02.461Z,0.00
2023-02-02T02:00:02.427Z,0.00
2023-02-02T02:01:02.504Z,0.00
2023-02-02T02:02:02.390Z,0.00
2023-02-02T02:03:02.322Z,0.00
2023-02-02T02:04:02.295Z,0.00
2023-02-02T02:05:02.240Z,0.00
2023-02-02T02:06:02.298Z,0.00
2023-02-02T02:07:02.237Z,0.00
2023-02-02T02:08:02.143Z,0.00
2023-02-02T02:09:02.100Z,0.00
2023-02-02T02:10:02.093Z,0.00
2023-02-02T02:11:02.027Z,0.00
2023-02-02T02:12:01.989Z,0.00
2023-02-02T02:13:02.116Z,0.00
2023-02-02T02:14:01.926Z,0.00
2023-02-02T02:15:02.688Z,0.00
2023-02-02T02:16:01.971Z,0.00
2023-02-02T02:17:01.806Z,0.00
2023-02-02T02:18:01.766Z,0.00
2023-02-02T02:19:01.739Z,0.00
2023-02-02T02:20:11.190Z,0.00
2023-02-02T02:21:01.672Z,0.00
2023-02-02T02:22:01.680Z,0.00
2023-02-02T02:23:01.590Z,0.00
2023-02-02T02:24:01.560Z,0.00
2023-02-02T02:25:01.517Z,0.00
2023-02-02T02:26:01.529Z,0.00
2023-02-02T02:27:01.443Z,0.00
2023-02-02T02:28:01.468Z,0.00
2023-02-02T02:29:01.386Z,0.00
2023-02-02T02:30:01.325Z,0.00
2023-02-02T02:31:01.393Z,0.00
2023-02-02T02:32:01.258Z,0.00
2023-02-02T02:33:01.391Z,0.00
2023-02-02T02:34:01.263Z,0.00
2023-02-02T02:35:01.171Z,0.00
2023-02-02T02:36:01.113Z,0.00
2023-02-02T02:37:01.078Z,0.00
2023-02-02T02:38:01.045Z,0.00
2023-02-02T02:39:00.999Z,0.00
2023-02-02T02:40:01.073Z,0.00
2023-02-02T02:41:00.925Z,0.00
2023-02-02T02:42:00.941Z,0.00
2023-02-02T02:43:00.896Z,0.00
2023-02-02T02:44:00.820Z,0.00
2023-02-02T02:45:00.848Z,0.00
2023-02-02T02:46:00.761Z,0.00
2023-02-02T02:47:00.718Z,0.00
2023-02-02T02:48:00.685Z,0.00
2023-02-02T02:49:00.644Z,0.00
2023-02-02T02:50:00.733Z,0.00
2023-02-02T02:51:00.564Z,0.00
2023-02-02T02:52:00.524Z,0.00
2023-02-02T02:53:00.500Z,0.00
2023-02-02T02:54:00.458Z,0.00
2023-02-02T02:55:00.430Z,0.00
2023-02-02T02:56:00.440Z,0.00
2023-02-02T02:57:00.340Z,0.00
2023-02-02T02:58:00.306Z,0.00
2023-02-02T02:59:00.278Z,0.00
2023-02-02T03:00:00.266Z,0.00
2023-02-02T03:01:00.255Z,0.00
2023-02-02T03:02:00.250Z,0.00
2023-02-02T03:03:00.133Z,0.00
2023-02-02T03:04:00.102Z,0.00
2023-02-02T03:05:00.070Z,0.00
2023-02-02T03:06:00.011Z,0.00
2023-02-02T03:07:00.120Z,0.00
2023-02-02T03:08:00.022Z,0.00
2023-02-02T03:08:59.953Z,0.00
2023-02-02T03:09:59.886Z,0.00
2023-02-02T03:10:59.888Z,0.00
2023-02-02T03:11:59.852Z,0.00
2023-02-02T03:13:06.601Z,0.00
2023-02-02T03:13:59.785Z,0.00
2023-02-02T03:14:59.737Z,0.00
2023-02-02T03:15:59.753Z,0.00
2023-02-02T03:16:59.643Z,0.00
2023-02-02T03:17:59.656Z,0.00
2023-02-02T03:18:59.552Z,0.00
2023-02-02T03:19:59.518Z,0.00
2023-02-02T03:20:59.477Z,0.00
2023-02-02T03:21:59.444Z,0.00
2023-02-02T03:22:59.464Z,0.00
2023-02-02T03:23:59.387Z,0.00
2023-02-02T03:24:59.351Z,0.00
2023-02-02T03:25:59.303Z,0.00
2023-02-02T03:26:59.259Z,0.00
2023-02-02T03:27:59.213Z,0.00
2023-02-02T03:28:59.244Z,0.00
2023-02-02T03:29:59.138Z,0.00
2023-02-02T03:30:59.182Z,0.00
2023-02-02T03:31:59.065Z,0.00
2023-02-02T03:32:59.042Z,0.00
2023-02-02T03:33:59.017Z,0.00
2023-02-02T03:34:59.177Z,0.00
2023-02-02T03:35:58.920Z,0.00
2023-02-02T03:36:58.882Z,0.00
2023-02-02T03:37:58.864Z,0.00
2023-02-02T03:38:58.813Z,0.00
2023-02-02T03:39:59.604Z,0.00
2023-02-02T03:40:58.896Z,0.00
2023-02-02T03:41:58.714Z,0.00
2023-02-02T03:42:58.668Z,0.00
2023-02-02T03:43:58.660Z,0.00
2023-02-02T03:44:58.594Z,0.00
2023-02-02T03:45:58.633Z,0.00
2023-02-02T03:46:58.528Z,0.00
2023-02-02T03:47:58.484Z,0.00
2023-02-02T03:48:58.450Z,0.00
2023-02-02T03:49:58.412Z,0.00
2023-02-02T03:50:58.376Z,0.00
2023-02-02T03:51:58.454Z,0.00
2023-02-02T03:52:58.296Z,0.00
2023-02-02T03:53:58.258Z,0.00
2023-02-02T03:54:58.387Z,0.00
2023-02-02T03:55:58.188Z,0.00
2023-02-02T03:56:58.149Z,0.00
2023-02-02T03:57:58.174Z,0.00
2023-02-02T03:58:58.092Z,0.00
2023-02-02T03:59:58.041Z,0.00
2023-02-02T04:00:58.008Z,0.00
2023-02-02T04:01:58.013Z,0.00
2023-02-02T04:02:57.987Z,0.00
2023-02-02T04:03:57.945Z,0.00
2023-02-02T04:04:57.851Z,0.00
2023-02-02T04:05:57.823Z,0.00
2023-02-02T04:06:57.785Z,0.00
2023-02-02T04:07:57.781Z,0.00
2023-02-02T04:08:57.826Z,0.00
2023-02-02T04:09:57.672Z,0.00
2023-02-02T04:10:57.641Z,0.00
2023-02-02T04:11:57.603Z,0.00
2023-02-02T04:12:57.562Z,0.00
2023-02-02T04:13:57.526Z,0.00
2023-02-02T04:14:57.566Z,0.00
2023-02-02T04:15:57.486Z,0.00
2023-02-02T04:16:57.409Z,0.00
2023-02-02T04:17:57.397Z,0.00
2023-02-02T04:18:57.339Z,0.00
2023-02-02T04:19:57.319Z,0.00
2023-02-02T04:20:57.324Z,0.00
2023-02-02T04:21:57.244Z,0.00
2023-02-02T04:22:57.196Z,0.00
2023-02-02T04:23:57.157Z,0.00
2023-02-02T04:24:57.121Z,0.00
2023-02-02T04:25:57.157Z,0.00
2023-02-02T04:26:57.320Z,0.00
2023-02-02T04:27:57.015Z,0.00
2023-02-02T04:28:56.968Z,0.00
2023-02-02T04:29:56.942Z,0.00
2023-02-02T04:30:56.961Z,0.00
2023-02-02T04:31:57.051Z,0.00
2023-02-02T04:32:56.901Z,0.00
2023-02-02T04:33:56.794Z,0.00
2023-02-02T04:34:56.757Z,0.00
2023-02-02T04:35:56.780Z,0.00
2023-02-02T04:36:56.677Z,0.00
2023-02-02T04:37:56.639Z,0.00
2023-02-02T04:38:56.610Z,0.00
2023-02-02T04:39:56.584Z,0.00
2023-02-02T04:40:56.531Z,0.00
2023-02-02T04:41:56.797Z,0.00
2023-02-02T04:42:56.527Z,0.00
2023-02-02T04:43:56.423Z,0.00
2023-02-02T04:44:56.387Z,0.00
2023-02-02T04:45:56.488Z,0.00
2023-02-02T04:46:56.318Z,0.00
2023-02-02T04:47:56.349Z,0.00
2023-02-02T04:48:56.311Z,0.00
2023-02-02T04:49:56.204Z,0.00
2023-02-02T04:50:56.171Z,0.00
2023-02-02T04:51:56.134Z,0.00
2023-02-02T04:52:56.100Z,0.00
2023-02-02T04:53:56.113Z,0.00
2023-02-02T04:54:56.053Z,0.00
2023-02-02T04:55:56.000Z,0.00
2023-02-02T04:56:55.946Z,0.00
2023-02-02T04:57:55.988Z,0.00
2023-02-02T04:58:55.873Z,0.00
2023-02-02T04:59:55.957Z,0.00
2023-02-02T05:00:55.859Z,0.00
2023-02-02T05:01:55.754Z,0.00
2023-02-02T05:02:55.781Z,0.00
2023-02-02T05:03:55.708Z,0.00
2023-02-02T05:04:55.644Z,0.00
2023-02-02T05:05:55.700Z,0.00
2023-02-02T05:06:55.586Z,0.00
2023-02-02T05:07:55.538Z,0.00
2023-02-02T05:08:55.582Z,0.00
2023-02-02T05:09:55.462Z,0.00
2023-02-02T05:10:55.441Z,0.00
2023-02-02T05:11:55.394Z,0.00
2023-02-02T05:12:55.358Z,0.00
2023-02-02T05:13:55.324Z,0.00
2023-02-02T05:14:55.361Z,0.00
2023-02-02T05:15:55.262Z,0.00
2023-02-02T05:16:55.335Z,0.00
2023-02-02T05:17:55.176Z,0.00
2023-02-02T05:18:55.144Z,0.00
2023-02-02T05:19:55.100Z,0.00
2023-02-02T05:20:55.126Z,0.00
2023-02-02T05:21:55.028Z,0.00
2023-02-02T05:22:54.997Z,0.00
2023-02-02T05:23:54.957Z,0.00
2023-02-02T05:24:54.931Z,0.00
2023-02-02T05:25:54.937Z,0.00
2023-02-02T05:26:54.880Z,0.00
2023-02-02T05:27:54.801Z,0.00
2023-02-02T05:28:54.772Z,0.00
2023-02-02T05:29:54.730Z,0.00
2023-02-02T05:30:54.844Z,0.00
2023-02-02T05:31:54.774Z,0.00
2023-02-02T05:32:54.623Z,0.00
2023-02-02T05:33:54.619Z,0.00
2023-02-02T05:34:54.550Z,0.00
2023-02-02T05:35:54.509Z,0.00
2023-02-02T05:36:54.543Z,0.00
2023-02-02T05:37:54.450Z,0.00
2023-02-02T05:38:54.405Z,0.00
2023-02-02T05:39:54.368Z,0.00
2023-02-02T05:40:54.437Z,0.00
2023-02-02T05:41:54.295Z,0.00
2023-02-02T05:42:54.315Z,0.00
2023-02-02T05:43:54.224Z,0.00
2023-02-02T05:44:54.179Z,0.00
2023-02-02T05:45:54.202Z,0.00
2023-02-02T05:46:54.118Z,0.00
2023-02-02T05:47:54.077Z,0.00
2023-02-02T05:48:54.115Z,0.00
2023-02-02T05:49:54.007Z,0.00
2023-02-02T05:50:54.011Z,0.00
2023-02-02T05:51:53.991Z,0.00
2023-02-02T05:52:53.887Z,0.00
2023-02-02T05:53:53.859Z,0.00
2023-02-02T05:54:53.907Z,0.00
2023-02-02T05:55:53.789Z,0.00
2023-02-02T05:56:53.777Z,0.00
2023-02-02T05:57:53.728Z,0.00
2023-02-02T05:58:53.687Z,0.00
2023-02-02T05:59:53.643Z,0.00
2023-02-02T06:00:56.282Z,0.00
2023-02-02T06:01:53.556Z,0.00
2023-02-02T06:02:53.652Z,0.00
2023-02-02T06:03:53.627Z,0.00
2023-02-02T06:04:53.450Z,0.00
2023-02-02T06:05:53.427Z,0.00
2023-02-02T06:06:53.430Z,0.00
2023-02-02T06:07:53.437Z,0.00
2023-02-02T06:08:53.311Z,0.00
2023-02-02T06:09:53.286Z,0.00
2023-02-02T06:10:53.244Z,0.00
2023-02-02T06:11:53.262Z,0.00
2023-02-02T06:12:53.154Z,0.00
2023-02-02T06:13:53.198Z,0.00
2023-02-02T06:14:53.082Z,0.00
2023-02-02T06:15:53.123Z,0.00
2023-02-02T06:16:53.075Z,4.00
2023-02-02T06:17:52.975Z,4.00
2023-02-02T06:18:53.781Z,0.00
2023-02-02T06:19:52.907Z,0.00
2023-02-02T06:20:52.873Z,4.00
2023-02-02T06:21:52.947Z,4.00
2023-02-02T06:22:52.797Z,0.00
2023-02-02T06:23:52.761Z,0.00
2023-02-02T06:24:52.755Z,4.00
2023-02-02T06:25:52.687Z,8.00
2023-02-02T06:26:52.676Z,8.00
2023-02-02T06:27:52.687Z,8.00
2023-02-02T06:28:52.581Z,12.00
2023-02-02T06:29:52.532Z,12.00
2023-02-02T06:30:52.635Z,8.00
2023-02-02T06:31:52.644Z,12.00
2023-02-02T06:32:52.491Z,12.00
2023-02-02T06:33:52.425Z,12.00
2023-02-02T06:34:52.373Z,16.00
2023-02-02T06:35:52.338Z,20.00
2023-02-02T06:36:52.285Z,32.00
2023-02-02T06:37:52.239Z,48.00
2023-02-02T06:38:52.274Z,56.00
2023-02-02T06:39:52.172Z,68.00
2023-02-02T06:40:52.133Z,76.00
2023-02-02T06:41:52.169Z,80.00
2023-02-02T06:42:52.098Z,84.00
2023-02-02T06:43:52.032Z,80.00
2023-02-02T06:44:52.050Z,84.00
2023-02-02T06:45:51.951Z,80.00
2023-02-02T06:46:51.912Z,104.00
2023-02-02T06:47:52.016Z,124.00
2023-02-02T06:48:51.838Z,148.00
2023-02-02T06:49:51.819Z,172.00
2023-02-02T06:50:51.823Z,208.00
2023-02-02T06:51:51.749Z,224.00
2023-02-02T06:52:51.700Z,236.00
2023-02-02T06:53:51.668Z,264.00
2023-02-02T06:54:51.625Z,288.00
2023-02-02T06:55:51.653Z,292.00
2023-02-02T06:56:51.559Z,320.00
2023-02-02T06:57:51.549Z,352.00
2023-02-02T06:58:51.558Z,336.00
2023-02-02T06:59:51.432Z,380.00
2023-02-02T07:00:51.402Z,424.00
2023-02-02T07:01:51.466Z,440.00
2023-02-02T07:02:51.362Z,444.00
2023-02-02T07:03:51.438Z,464.00
2023-02-02T07:04:51.292Z,504.00
2023-02-02T07:05:51.226Z,528.00
2023-02-02T07:06:51.181Z,548.00
2023-02-02T07:07:51.219Z,552.00
2023-02-02T07:09:01.057Z,532.00
2023-02-02T07:09:58.324Z,564.00
2023-02-02T07:11:12.001Z,504.00
2023-02-02T07:11:51.008Z,424.00
2023-02-02T07:12:50.969Z,396.00
2023-02-02T07:13:50.994Z,508.00
2023-02-02T07:14:50.891Z,632.00
2023-02-02T07:15:50.899Z,720.00
2023-02-02T07:16:50.824Z,748.00
2023-02-02T07:17:50.788Z,788.00
2023-02-02T07:18:50.748Z,768.00
2023-02-02T07:19:50.788Z,752.00
2023-02-02T07:20:50.690Z,772.00
2023-02-02T07:21:50.660Z,860.00
2023-02-02T07:22:50.617Z,832.00
2023-02-02T07:23:50.614Z,796.00
2023-02-02T07:24:50.582Z,712.00
2023-02-02T07:25:50.552Z,692.00
2023-02-02T07:26:50.493Z,852.00
2023-02-02T07:27:50.431Z,872.00
2023-02-02T07:28:50.386Z,880.00
2023-02-02T07:29:50.362Z,968.00
2023-02-02T07:30:50.951Z,892.00
2023-02-02T07:31:50.301Z,852.00
2023-02-02T07:32:50.352Z,764.00
2023-02-02T07:33:50.219Z,724.00
2023-02-02T07:34:50.164Z,652.00
2023-02-02T07:35:50.136Z,676.00
2023-02-02T07:36:50.156Z,760.00
2023-02-02T07:37:50.062Z,556.00
2023-02-02T07:38:50.038Z,672.00
2023-02-02T07:39:49.989Z,840.00
2023-02-02T07:40:49.944Z,924.00
2023-02-02T07:41:49.929Z,1032.00
2023-02-02T07:42:49.999Z,1420.00
2023-02-02T07:43:49.843Z,1396.00
2023-02-02T07:44:49.806Z,1708.00
2023-02-02T07:45:49.775Z,1876.00
2023-02-02T07:46:49.813Z,1820.00
2023-02-02T07:47:49.698Z,1608.00
2023-02-02T07:48:49.719Z,1920.00
2023-02-02T07:49:49.649Z,2076.00
2023-02-02T07:50:49.596Z,1828.00
2023-02-02T07:51:49.551Z,1940.00
2023-02-02T07:52:49.524Z,1804.00
2023-02-02T07:53:49.476Z,2012.00
2023-02-02T07:54:49.497Z,1788.00
2023-02-02T07:55:49.429Z,1764.00
2023-02-02T07:56:49.373Z,1852.00
2023-02-02T07:57:49.347Z,2188.00
2023-02-02T07:58:49.298Z,2228.00
2023-02-02T07:59:49.754Z,1812.00
2023-02-02T08:00:49.318Z,1828.00
2023-02-02T08:01:49.275Z,1700.00
2023-02-02T08:02:49.247Z,1068.00
2023-02-02T08:03:49.118Z,896.00
2023-02-02T08:04:49.086Z,1016.00
2023-02-02T08:05:49.040Z,1352.00
2023-02-02T08:06:49.093Z,1664.00
2023-02-02T08:07:48.970Z,1312.00
2023-02-02T08:08:56.152Z,1300.00
2023-02-02T08:09:48.900Z,1268.00
2023-02-02T08:10:48.865Z,1392.00
2023-02-02T08:11:48.833Z,1104.00
2023-02-02T08:12:48.887Z,1392.00
2023-02-02T08:13:48.780Z,1172.00
2023-02-02T08:14:48.744Z,1060.00
2023-02-02T08:15:48.715Z,936.00
2023-02-02T08:16:48.700Z,1072.00
2023-02-02T08:17:48.616Z,1144.00
2023-02-02T08:18:48.638Z,972.00
2023-02-02T08:19:48.548Z,904.00
2023-02-02T08:20:48.510Z,1136.00
2023-02-02T08:21:48.476Z,1176.00
2023-02-02T08:22:48.428Z,1136.00
2023-02-02T08:23:48.432Z,1728.00
2023-02-02T08:24:48.445Z,1356.00
2023-02-02T08:25:48.339Z,1308.00
2023-02-02T08:26:48.338Z,1144.00
2023-02-02T08:27:48.259Z,1432.00
2023-02-02T08:28:48.230Z,1372.00
2023-02-02T08:29:48.179Z,1836.00
2023-02-02T08:30:48.248Z,1632.00
2023-02-02T08:31:48.128Z,1700.00
2023-02-02T08:32:48.085Z,1704.00
2023-02-02T08:33:48.089Z,2148.00
2023-02-02T08:34:48.003Z,2224.00
2023-02-02T08:35:47.967Z,2608.00
2023-02-02T08:36:47.979Z,2844.00
2023-02-02T08:37:47.892Z,2944.00
2023-02-02T08:38:47.851Z,2840.00
2023-02-02T08:39:47.829Z,3104.00
2023-02-02T08:40:47.811Z,3544.00
2023-02-02T08:41:47.762Z,2892.00
2023-02-02T08:42:47.767Z,3312.00
2023-02-02T08:43:47.688Z,4904.00
2023-02-02T08:46:02.797Z,4192.00
2023-02-02T08:46:07.771Z,3808.00
2023-02-02T08:46:47.699Z,3768.00
2023-02-02T08:47:48.354Z,3596.00
2023-02-02T08:48:47.733Z,3516.00
2023-02-02T08:49:48.268Z,3092.00
2023-02-02T08:50:47.496Z,2944.00
2023-02-02T08:51:47.393Z,2900.00
2023-02-02T08:52:47.361Z,3244.00
2023-02-02T08:53:47.318Z,3388.00
2023-02-02T08:54:47.337Z,3552.00
2023-02-02T08:55:47.251Z,3596.00
2023-02-02T08:56:47.207Z,3380.00
2023-02-02T08:57:47.206Z,3372.00
2023-02-02T08:58:47.202Z,3484.00
2023-02-02T08:59:47.102Z,3536.00
2023-02-02T09:00:47.159Z,3452.00
2023-02-02T09:01:47.035Z,2924.00
2023-02-02T09:02:46.989Z,2696.00
2023-02-02T09:03:46.971Z,2524.00
2023-02-02T09:04:46.920Z,2616.00
2023-02-02T09:05:46.897Z,2796.00
2023-02-02T09:06:47.766Z,2996.00
2023-02-02T09:07:47.247Z,3124.00
2023-02-02T09:08:46.889Z,3684.00
2023-02-02T09:09:46.745Z,4448.00
2023-02-02T09:10:46.708Z,4940.00
2023-02-02T09:11:46.671Z,5220.00
2023-02-02T09:12:46.701Z,5068.00
2023-02-02T09:13:46.602Z,4940.00
2023-02-02T09:14:46.597Z,4596.00
2023-02-02T09:15:46.538Z,5244.00
2023-02-02T09:16:46.560Z,5620.00
2023-02-02T09:17:46.469Z,5476.00
2023-02-02T09:18:46.464Z,5580.00
2023-02-02T09:19:46.386Z,5328.00
2023-02-02T09:20:48.164Z,5204.00
2023-02-02T09:21:46.318Z,5044.00
2023-02-02T09:22:46.286Z,5128.00
2023-02-02T09:23:46.243Z,5044.00
2023-02-02T09:24:46.329Z,4952.00
2023-02-02T09:25:46.177Z,5224.00
2023-02-02T09:26:46.224Z,5492.00
2023-02-02T09:27:46.103Z,5568.00
2023-02-02T09:28:46.079Z,5524.00
2023-02-02T09:29:46.035Z,5432.00
2023-02-02T09:30:46.083Z,5576.00
2023-02-02T09:31:46.693Z,5544.00
2023-02-02T09:32:45.922Z,5436.00
2023-02-02T09:33:45.891Z,5220.00
2023-02-02T09:34:45.852Z,5088.00
2023-02-02T09:35:45.819Z,5224.00
2023-02-02T09:36:45.829Z,5492.00
2023-02-02T09:37:45.761Z,5416.00
2023-02-02T09:38:45.722Z,5240.00
2023-02-02T09:39:45.677Z,4932.00
2023-02-02T09:40:45.644Z,4952.00
2023-02-02T09:41:45.629Z,5432.00
2023-02-02T09:42:45.624Z,5580.00
2023-02-02T09:43:45.552Z,5356.00
2023-02-02T09:44:45.531Z,4988.00
2023-02-02T09:45:45.520Z,5416.00
2023-02-02T09:46:45.446Z,5684.00
2023-02-02T09:47:45.484Z,5548.00
2023-02-02T09:48:45.386Z,5120.00
2023-02-02T09:49:45.332Z,4428.00
2023-02-02T09:50:45.311Z,4104.00
2023-02-02T09:51:45.263Z,3672.00
2023-02-02T09:52:45.288Z,3736.00
2023-02-02T09:53:55.267Z,3292.00
2023-02-02T09:54:45.162Z,2900.00
2023-02-02T09:55:45.122Z,2916.00
2023-02-02T09:56:45.143Z,3376.00
2023-02-02T09:57:45.049Z,5224.00
2023-02-02T09:58:45.112Z,3856.00
2023-02-02T09:59:45.000Z,4964.00
2023-02-02T10:00:44.943Z,3984.00
2023-02-02T10:01:45.037Z,3900.00
2023-02-02T10:02:44.937Z,6024.00
2023-02-02T10:03:44.876Z,6188.00
2023-02-02T10:04:44.807Z,6860.00
2023-02-02T10:05:44.851Z,6496.00
2023-02-02T10:06:44.809Z,5916.00
2023-02-02T10:07:44.698Z,5284.00
2023-02-02T10:08:44.722Z,4968.00
2023-02-02T10:09:44.629Z,4192.00
2023-02-02T10:10:44.590Z,4716.00
2023-02-02T10:11:44.553Z,5976.00
2023-02-02T10:12:44.512Z,7652.00
2023-02-02T10:13:44.477Z,6788.00
2023-02-02T10:14:44.525Z,5428.00
2023-02-02T10:15:44.559Z,5904.00
2023-02-02T10:16:44.389Z,5348.00
2023-02-02T10:17:44.374Z,5788.00
2023-02-02T10:18:44.311Z,5768.00
2023-02-02T10:19:44.288Z,6380.00
2023-02-02T10:20:44.318Z,7352.00
2023-02-02T10:21:44.199Z,6208.00
2023-02-02T10:22:44.783Z,8276.00
2023-02-02T10:23:44.135Z,6832.00
2023-02-02T10:24:44.104Z,6416.00
2023-02-02T10:25:44.061Z,5800.00
2023-02-02T10:26:44.187Z,6452.00
2023-02-02T10:27:46.287Z,6072.00
2023-02-02T10:28:43.961Z,5496.00
2023-02-02T10:29:49.156Z,5444.00
2023-02-02T10:30:43.950Z,7460.00
2023-02-02T10:31:44.026Z,6480.00
2023-02-02T10:32:43.948Z,5232.00
2023-02-02T10:33:43.799Z,5824.00
2023-02-02T10:34:43.808Z,6464.00
2023-02-02T10:35:43.710Z,7532.00
2023-02-02T10:36:43.675Z,8148.00
2023-02-02T10:37:43.651Z,8212.00
2023-02-02T10:38:43.610Z,7724.00
2023-02-02T10:39:43.650Z,6796.00
2023-02-02T10:40:43.538Z,5508.00
2023-02-02T10:41:43.504Z,5224.00
2023-02-02T10:42:43.482Z,4532.00
2023-02-02T10:43:43.440Z,5216.00
2023-02-02T10:44:43.457Z,7616.00
2023-02-02T10:45:43.363Z,7616.00
2023-02-02T10:46:43.346Z,7548.00
2023-02-02T10:47:43.294Z,6956.00
2023-02-02T10:48:43.268Z,7604.00
2023-02-02T10:49:43.297Z,5940.00
2023-02-02T10:50:43.324Z,7008.00
2023-02-02T10:51:43.173Z,7764.00
2023-02-02T10:52:43.134Z,5456.00
2023-02-02T10:53:43.102Z,5772.00
2023-02-02T10:54:56.002Z,5296.00
2023-02-02T10:55:43.021Z,5056.00
2023-02-02T10:56:43.191Z,5916.00
2023-02-02T10:57:42.945Z,5756.00
2023-02-02T10:58:42.912Z,6188.00
2023-02-02T10:59:42.876Z,7488.00
2023-02-02T11:00:42.843Z,5392.00
2023-02-02T11:01:42.899Z,5192.00
2023-02-02T11:02:42.840Z,4756.00
2023-02-02T11:03:42.732Z,4464.00
2023-02-02T11:04:42.706Z,4560.00
2023-02-02T11:05:42.680Z,4816.00
2023-02-02T11:06:42.640Z,4888.00
2023-02-02T11:07:42.644Z,4988.00
2023-02-02T11:08:42.613Z,5260.00
2023-02-02T11:09:42.534Z,4820.00
2023-02-02T11:10:42.499Z,6496.00
2023-02-02T11:11:42.530Z,7080.00
2023-02-02T11:12:42.424Z,8212.00
2023-02-02T11:13:42.442Z,7272.00
2023-02-02T11:14:45.612Z,9380.00
2023-02-02T11:15:42.355Z,8212.00
2023-02-02T11:16:44.265Z,8476.00
2023-02-02T11:17:42.245Z,7532.00
2023-02-02T11:18:44.093Z,9112.00
2023-02-02T11:19:42.182Z,11760.00
2023-02-02T11:20:42.144Z,8484.00
2023-02-02T11:21:42.198Z,6688.00
2023-02-02T11:22:42.109Z,5580.00
2023-02-02T11:23:42.821Z,4064.00
2023-02-02T11:24:42.687Z,4672.00
2023-02-02T11:25:43.690Z,4940.00
2023-02-02T11:26:42.095Z,4584.00
2023-02-02T11:27:42.378Z,5072.00
2023-02-02T11:28:41.866Z,5008.00
2023-02-02T11:29:41.837Z,4348.00
2023-02-02T11:30:41.914Z,4584.00
2023-02-02T11:31:42.344Z,4864.00
2023-02-02T11:32:42.081Z,4276.00
2023-02-02T11:33:41.702Z,3888.00
2023-02-02T11:34:41.672Z,4120.00
2023-02-02T11:35:42.191Z,4352.00
2023-02-02T11:36:41.591Z,4940.00
2023-02-02T11:37:41.573Z,4316.00
2023-02-02T11:38:42.191Z,4336.00
2023-02-02T11:39:41.494Z,4244.00
2023-02-02T11:40:41.465Z,5092.00
2023-02-02T11:41:41.609Z,6396.00
2023-02-02T11:42:41.397Z,7200.00
2023-02-02T11:43:41.394Z,6672.00
2023-02-02T11:44:41.387Z,6368.00
2023-02-02T11:45:41.300Z,6116.00
2023-02-02T11:46:41.257Z,6348.00
2023-02-02T11:47:41.230Z,5880.00
2023-02-02T11:48:41.177Z,6408.00
2023-02-02T11:49:41.160Z,6168.00
2023-02-02T11:50:41.224Z,5364.00
2023-02-02T11:51:42.699Z,5480.00
2023-02-02T11:52:41.069Z,5580.00
2023-02-02T11:53:41.017Z,5940.00
2023-02-02T11:54:41.001Z,6376.00
2023-02-02T11:55:40.941Z,6136.00
2023-02-02T11:56:40.986Z,5440.00
2023-02-02T11:57:40.884Z,5696.00
2023-02-02T11:58:40.948Z,6304.00
2023-02-02T11:59:40.853Z,6660.00
2023-02-02T12:00:40.771Z,5952.00
2023-02-02T12:01:40.841Z,5036.00
2023-02-02T12:02:40.691Z,4684.00
2023-02-02T12:03:40.696Z,4336.00
2023-02-02T12:04:40.708Z,4216.00
2023-02-02T12:05:40.602Z,4132.00
2023-02-02T12:06:40.572Z,3216.00
2023-02-02T12:07:40.530Z,2672.00
2023-02-02T12:08:41.292Z,3632.00
2023-02-02T12:09:40.535Z,6572.00
2023-02-02T12:10:40.438Z,7596.00
2023-02-02T12:11:40.387Z,4712.00
2023-02-02T12:12:40.348Z,5680.00
2023-02-02T12:13:40.303Z,6264.00
2023-02-02T12:14:40.378Z,6836.00
2023-02-02T12:15:40.269Z,6732.00
2023-02-02T12:16:40.241Z,5704.00
2023-02-02T12:17:40.171Z,5212.00
2023-02-02T12:18:40.200Z,4320.00
2023-02-02T12:19:40.125Z,4028.00
2023-02-02T12:20:40.140Z,3912.00
2023-02-02T12:21:40.049Z,4004.00
2023-02-02T12:22:40.027Z,4620.00
2023-02-02T12:23:39.969Z,3708.00
2023-02-02T12:24:39.930Z,3040.00
2023-02-02T12:25:39.959Z,2972.00
2023-02-02T12:26:39.948Z,2356.00
2023-02-02T12:27:39.820Z,2588.00
2023-02-02T12:28:39.783Z,3448.00
2023-02-02T12:29:39.754Z,4080.00
2023-02-02T12:30:39.792Z,4508.00
2023-02-02T12:31:39.767Z,5420.00
2023-02-02T12:32:39.729Z,6092.00
2023-02-02T12:33:39.622Z,5872.00
2023-02-02T12:34:39.581Z,4748.00
2023-02-02T12:35:39.543Z,4568.00
2023-02-02T12:36:39.511Z,3688.00
2023-02-02T12:37:39.480Z,3876.00
2023-02-02T12:38:39.557Z,4064.00
2023-02-02T12:39:39.421Z,3920.00
2023-02-02T12:40:39.439Z,4096.00
2023-02-02T12:41:39.341Z,3916.00
2023-02-02T12:42:41.208Z,3324.00
2023-02-02T12:43:39.271Z,3116.00